createdAt,value
2022-07-27T00:03:01.448Z,14.90
2022-07-27T00:06:04.947Z,9.88
2022-07-27T00:09:08.495Z,10.80
2022-07-27T00:12:12.186Z,10.13
2022-07-27T00:15:17.921Z,11.35
2022-07-27T00:18:22.919Z,13.15
2022-07-27T00:21:26.867Z,12.25
2022-07-27T00:24:30.281Z,13.00
2022-07-27T00:27:33.730Z,14.27
2022-07-27T00:30:37.031Z,14.40
2022-07-27T00:33:41.695Z,14.45
2022-07-27T00:36:45.007Z,12.55
2022-07-27T00:39:51.357Z,12.85
2022-07-27T00:46:25.219Z,12.70
2022-07-27T00:49:30.036Z,11.35
2022-07-27T00:52:33.570Z,14.15
2022-07-27T00:55:37.249Z,17.27
2022-07-27T00:58:40.842Z,14.38
2022-07-27T01:01:44.951Z,14.80
2022-07-27T01:04:49.680Z,14.73
2022-07-27T01:07:57.443Z,18.55
2022-07-27T01:11:01.041Z,13.95
2022-07-27T01:14:05.642Z,14.85
2022-07-27T01:17:08.990Z,14.55
2022-07-27T01:20:13.895Z,15.43
2022-07-27T01:23:18.654Z,14.63
2022-07-27T01:26:22.043Z,15.20
2022-07-27T01:29:25.380Z,17.15
2022-07-27T01:32:28.667Z,15.38
2022-07-27T01:35:32.275Z,13.45
2022-07-27T01:38:36.973Z,13.68
2022-07-27T01:41:40.203Z,14.48
2022-07-27T01:44:43.435Z,13.43
2022-07-27T01:47:46.774Z,16.05
2022-07-27T01:50:51.262Z,13.23
2022-07-27T01:53:56.098Z,11.93
2022-07-27T01:56:59.319Z,12.63
2022-07-27T02:00:02.672Z,11.80
2022-07-27T02:03:15.449Z,14.38
2022-07-27T02:06:18.746Z,11.65
2022-07-27T02:09:25.892Z,12.15
2022-07-27T02:12:37.046Z,13.57
2022-07-27T02:15:42.971Z,11.57
2022-07-27T02:22:22.209Z,10.80
2022-07-27T02:25:26.795Z,12.63
2022-07-27T02:28:29.947Z,13.45
2022-07-27T02:31:33.267Z,13.95
2022-07-27T02:34:36.452Z,14.88
2022-07-27T02:37:39.718Z,15.88
2022-07-27T02:40:44.408Z,20.55
2022-07-27T02:43:47.732Z,23.65
2022-07-27T02:46:51.127Z,20.38
2022-07-27T02:49:54.499Z,25.38
2022-07-27T02:52:57.700Z,19.92
2022-07-27T02:56:02.394Z,21.50
2022-07-27T02:59:05.687Z,24.90
2022-07-27T03:02:08.965Z,23.00
2022-07-27T03:05:12.760Z,23.13
2022-07-27T03:08:16.059Z,21.45
2022-07-27T03:11:20.770Z,24.77
2022-07-27T03:14:24.086Z,21.98
2022-07-27T03:17:27.389Z,23.48
2022-07-27T03:20:30.648Z,18.35
2022-07-27T03:23:33.907Z,18.60
2022-07-27T03:26:38.575Z,17.58
2022-07-27T03:29:41.836Z,21.08
2022-07-27T03:32:45.075Z,20.80
2022-07-27T03:35:48.269Z,17.90
2022-07-27T03:38:51.561Z,18.83
2022-07-27T03:41:56.085Z,17.70
2022-07-27T03:44:59.439Z,17.95
2022-07-27T03:48:02.794Z,18.00
2022-07-27T03:51:06.057Z,19.88
2022-07-27T03:54:09.365Z,19.13
2022-07-27T03:57:14.109Z,22.88
2022-07-27T04:00:17.873Z,31.77
2022-07-27T04:03:21.158Z,23.45
2022-07-27T04:06:25.712Z,21.92
2022-07-27T04:09:29.147Z,18.15
2022-07-27T04:12:37.455Z,18.10
2022-07-27T04:15:40.914Z,21.10
2022-07-27T04:18:44.351Z,18.25
2022-07-27T04:21:47.637Z,24.23
2022-07-27T04:24:50.896Z,30.98
2022-07-27T04:27:55.595Z,17.98
2022-07-27T04:30:58.928Z,21.42
2022-07-27T04:34:02.302Z,20.40
2022-07-27T04:37:06.127Z,22.33
2022-07-27T04:40:10.642Z,19.70
2022-07-27T04:43:15.333Z,21.75
2022-07-27T04:46:18.661Z,20.48
2022-07-27T04:49:22.160Z,18.10
2022-07-27T04:52:26.642Z,18.08
2022-07-27T04:55:30.145Z,17.35
2022-07-27T04:58:34.921Z,16.48
2022-07-27T05:01:38.625Z,14.75
2022-07-27T05:04:42.052Z,14.75
2022-07-27T05:07:45.400Z,16.20
2022-07-27T05:10:48.837Z,15.57
2022-07-27T05:13:53.599Z,16.85
2022-07-27T05:16:56.984Z,14.90
2022-07-27T05:20:01.389Z,17.98
2022-07-27T05:23:04.956Z,19.90
2022-07-27T05:26:08.251Z,18.88
2022-07-27T05:29:13.243Z,17.48
2022-07-27T05:32:17.290Z,15.80
2022-07-27T05:35:20.820Z,18.92
2022-07-27T05:38:24.238Z,15.93
2022-07-27T05:41:28.368Z,15.02
2022-07-27T05:44:33.223Z,15.57
2022-07-27T05:47:36.673Z,14.55
2022-07-27T05:50:39.989Z,12.40
2022-07-27T05:53:43.481Z,16.60
2022-07-27T05:56:47.236Z,14.80
2022-07-27T05:59:54.655Z,14.95
2022-07-27T06:02:58.048Z,13.50
2022-07-27T06:06:18.854Z,14.25
2022-07-27T06:09:22.200Z,14.35
2022-07-27T06:12:27.658Z,20.77
2022-07-27T06:15:35.560Z,17.90
2022-07-27T06:18:39.084Z,14.20
2022-07-27T06:21:42.419Z,11.80
2022-07-27T06:24:45.727Z,15.30
2022-07-27T06:27:49.350Z,14.77
2022-07-27T06:30:54.722Z,16.25
2022-07-27T06:33:58.341Z,12.80
2022-07-27T06:37:05.463Z,19.35
2022-07-27T06:40:09.667Z,15.48
2022-07-27T06:43:12.994Z,17.92
2022-07-27T06:46:17.736Z,17.27
2022-07-27T06:49:21.253Z,12.85
2022-07-27T06:52:24.723Z,16.65
2022-07-27T06:55:28.128Z,13.88
2022-07-27T06:58:32.696Z,13.40
2022-07-27T07:01:37.431Z,14.90
2022-07-27T07:04:40.766Z,12.90
2022-07-27T07:07:44.133Z,14.10
2022-07-27T07:10:47.524Z,17.05
2022-07-27T07:13:50.899Z,12.50
2022-07-27T07:16:55.750Z,14.15
2022-07-27T07:19:59.177Z,11.98
2022-07-27T07:23:02.836Z,14.07
2022-07-27T07:26:06.293Z,13.93
2022-07-27T07:29:10.003Z,13.10
2022-07-27T07:32:14.858Z,12.43
2022-07-27T07:35:18.322Z,11.52
2022-07-27T07:38:21.584Z,13.23
2022-07-27T07:41:24.978Z,13.95
2022-07-27T07:44:28.417Z,14.80
2022-07-27T07:47:33.183Z,13.23
2022-07-27T07:50:36.471Z,17.40
2022-07-27T07:53:41.633Z,16.27
2022-07-27T07:56:45.336Z,14.63
2022-07-27T07:59:48.706Z,14.85
2022-07-27T08:02:55.699Z,15.75
2022-07-27T08:05:59.102Z,16.25
2022-07-27T08:09:03.524Z,14.90
2022-07-27T08:12:07.889Z,17.77
2022-07-27T08:15:12.497Z,18.30
2022-07-27T08:18:17.271Z,17.13
2022-07-27T08:21:20.670Z,15.65
2022-07-27T08:24:24.072Z,18.27
2022-07-27T08:27:27.394Z,18.13
2022-07-27T08:30:32.367Z,16.20
2022-07-27T08:33:40.920Z,14.38
2022-07-27T08:36:44.448Z,17.30
2022-07-27T08:43:12.180Z,15.80
2022-07-27T08:46:19.341Z,15.48
2022-07-27T08:49:41.370Z,13.80
2022-07-27T08:52:46.329Z,14.02
2022-07-27T08:55:49.969Z,14.35
2022-07-27T08:58:53.373Z,16.02
2022-07-27T09:01:56.773Z,13.48
2022-07-27T09:05:01.898Z,13.40
2022-07-27T09:08:10.936Z,13.93
2022-07-27T09:11:16.298Z,16.92
2022-07-27T09:14:19.672Z,15.80
2022-07-27T09:21:10.418Z,15.43
2022-07-27T09:24:45.407Z,13.38
2022-07-27T09:27:39.759Z,12.98
2022-07-27T09:30:44.197Z,14.85
2022-07-27T09:33:49.364Z,13.50
2022-07-27T09:36:56.000Z,14.20
2022-07-27T09:40:12.765Z,13.80
2022-07-27T09:44:12.457Z,14.30
2022-07-27T09:46:44.011Z,15.95
2022-07-27T09:49:47.416Z,15.27
2022-07-27T09:52:52.238Z,13.68
2022-07-27T09:56:00.820Z,13.07
2022-07-27T09:59:05.474Z,16.25
2022-07-27T10:02:09.033Z,12.85
2022-07-27T10:05:14.080Z,13.30
2022-07-27T10:08:20.418Z,13.32
2022-07-27T10:11:25.055Z,13.00
2022-07-27T10:14:28.590Z,13.57
2022-07-27T10:17:32.219Z,12.88
2022-07-27T10:20:39.587Z,13.30
2022-07-27T10:23:55.528Z,13.40
2022-07-27T10:26:59.528Z,12.18
2022-07-27T10:30:06.714Z,15.25
2022-07-27T10:33:17.468Z,10.40
2022-07-27T10:36:51.961Z,10.40
2022-07-27T10:40:12.123Z,11.63
2022-07-27T10:43:20.492Z,11.75
2022-07-27T10:46:23.858Z,13.10
2022-07-27T10:49:30.198Z,9.02
2022-07-27T10:52:43.978Z,9.68
2022-07-27T10:55:49.771Z,10.82
2022-07-27T10:58:53.340Z,9.73
2022-07-27T11:01:58.601Z,12.15
2022-07-27T11:05:05.950Z,9.88
2022-07-27T11:08:36.593Z,9.70
2022-07-27T11:11:34.716Z,10.10
2022-07-27T11:14:46.696Z,9.75
2022-07-27T11:18:00.481Z,9.40
2022-07-27T11:21:25.919Z,9.88
2022-07-27T11:24:30.252Z,10.50
2022-07-27T11:27:46.492Z,9.55
2022-07-27T11:30:50.455Z,9.55
2022-07-27T11:33:56.458Z,9.20
2022-07-27T11:37:02.221Z,10.05
2022-07-27T11:40:28.177Z,10.73
2022-07-27T11:43:39.135Z,8.65
2022-07-27T11:46:44.533Z,8.73
2022-07-27T11:49:48.626Z,9.57
2022-07-27T11:53:01.659Z,9.80
2022-07-27T11:56:05.738Z,10.23
2022-07-27T11:59:13.974Z,9.52
2022-07-27T12:02:20.482Z,9.68
2022-07-27T12:05:24.173Z,9.50
2022-07-27T12:08:28.388Z,9.43
2022-07-27T12:11:45.454Z,9.82
2022-07-27T12:14:54.300Z,10.25
2022-07-27T12:17:58.239Z,10.30
2022-07-27T12:21:01.670Z,9.75
2022-07-27T12:24:05.662Z,9.82
2022-07-27T12:27:14.172Z,10.48
2022-07-27T12:30:20.192Z,10.00
2022-07-27T12:33:28.733Z,9.95
2022-07-27T12:36:32.735Z,12.15
2022-07-27T12:39:36.198Z,11.05
2022-07-27T12:42:39.567Z,9.85
2022-07-27T12:45:45.009Z,10.25
2022-07-27T12:48:48.491Z,11.40
2022-07-27T12:51:52.168Z,10.10
2022-07-27T12:54:55.761Z,9.82
2022-07-27T12:57:59.146Z,10.30
2022-07-27T13:01:04.019Z,10.18
2022-07-27T13:04:07.564Z,9.75
2022-07-27T13:07:10.872Z,10.10
2022-07-27T13:10:14.572Z,9.48
2022-07-27T13:13:18.020Z,9.57
2022-07-27T13:16:22.808Z,9.88
2022-07-27T13:19:26.228Z,11.32
2022-07-27T13:22:30.131Z,11.60
2022-07-27T13:25:33.759Z,10.18
2022-07-27T13:28:37.699Z,12.20
2022-07-27T13:31:49.006Z,10.30
2022-07-27T13:34:54.618Z,10.27
2022-07-27T13:37:58.007Z,11.45
2022-07-27T13:41:01.453Z,9.50
2022-07-27T13:44:05.376Z,9.70
2022-07-27T13:47:10.324Z,11.20
2022-07-27T13:50:19.358Z,11.20
2022-07-27T13:53:23.220Z,10.05
2022-07-27T13:56:30.078Z,8.77
2022-07-27T13:59:33.420Z,9.55
2022-07-27T14:02:38.246Z,10.98
2022-07-27T14:05:48.803Z,10.55
2022-07-27T14:08:53.201Z,11.38
2022-07-27T14:11:56.886Z,10.55
2022-07-27T14:15:00.300Z,9.70
2022-07-27T14:18:05.531Z,10.18
2022-07-27T14:21:10.345Z,10.52
2022-07-27T14:24:13.626Z,10.75
2022-07-27T14:27:17.096Z,12.02
2022-07-27T14:30:21.201Z,12.00
2022-07-27T14:33:29.852Z,9.75
2022-07-27T14:36:40.172Z,12.60
2022-07-27T14:39:43.505Z,13.43
2022-07-27T14:42:47.066Z,9.63
2022-07-27T14:45:50.700Z,13.10
2022-07-27T14:49:10.680Z,9.75
2022-07-27T14:52:14.560Z,10.80
2022-07-27T14:55:18.074Z,11.93
2022-07-27T14:58:21.406Z,10.30
2022-07-27T15:01:24.979Z,9.95
2022-07-27T15:04:30.299Z,11.02
2022-07-27T15:07:34.319Z,9.55
2022-07-27T15:10:37.648Z,10.10
2022-07-27T15:13:41.014Z,12.90
2022-07-27T15:16:44.660Z,10.02
2022-07-27T15:19:49.391Z,9.50
2022-07-27T15:22:52.816Z,9.60
2022-07-27T15:25:56.135Z,9.40
2022-07-27T15:28:59.426Z,9.35
2022-07-27T15:32:02.793Z,9.55
2022-07-27T15:35:08.294Z,10.63
2022-07-27T15:38:11.709Z,10.38
2022-07-27T15:41:15.570Z,9.57
2022-07-27T15:44:21.057Z,11.23
2022-07-27T15:47:24.386Z,11.38
2022-07-27T15:50:29.244Z,11.45
2022-07-27T15:53:32.561Z,11.30
2022-07-27T15:56:35.865Z,10.73
2022-07-27T15:59:39.189Z,9.65
2022-07-27T16:02:42.615Z,10.75
2022-07-27T16:05:48.979Z,10.20
2022-07-27T16:08:52.369Z,10.20
2022-07-27T16:11:55.639Z,9.73
2022-07-27T16:14:58.950Z,9.98
2022-07-27T16:18:02.419Z,10.13
2022-07-27T16:21:07.406Z,10.02
2022-07-27T16:24:11.212Z,10.30
2022-07-27T16:27:14.558Z,9.93
2022-07-27T16:30:20.577Z,10.05
2022-07-27T16:33:25.672Z,10.15
2022-07-27T16:36:38.211Z,11.73
2022-07-27T16:39:42.774Z,11.02
2022-07-27T16:42:46.157Z,13.38
2022-07-27T16:45:49.479Z,11.18
2022-07-27T16:48:52.826Z,11.27
2022-07-27T16:51:57.568Z,12.30
2022-07-27T16:55:00.853Z,11.30
2022-07-27T16:58:05.347Z,14.70
2022-07-27T17:01:10.002Z,11.45
2022-07-27T17:04:26.007Z,12.25
2022-07-27T17:07:30.740Z,13.77
2022-07-27T17:10:34.059Z,11.60
2022-07-27T17:13:38.666Z,12.27
2022-07-27T17:16:51.741Z,10.82
2022-07-27T17:19:55.571Z,12.88
2022-07-27T17:23:00.335Z,10.65
2022-07-27T17:26:05.491Z,9.95
2022-07-27T17:29:08.821Z,10.55
2022-07-27T17:32:12.406Z,10.43
2022-07-27T17:35:16.796Z,11.88
2022-07-27T17:38:22.322Z,11.55
2022-07-27T17:41:25.748Z,13.00
2022-07-27T17:44:29.126Z,13.05
2022-07-27T17:47:32.493Z,12.85
2022-07-27T17:50:36.304Z,13.73
2022-07-27T17:53:41.040Z,11.93
2022-07-27T17:56:44.423Z,11.73
2022-07-27T17:59:47.795Z,17.67
2022-07-27T18:02:51.123Z,17.17
2022-07-27T18:05:54.476Z,12.55
2022-07-27T18:08:59.317Z,17.25
2022-07-27T18:12:02.694Z,15.80
2022-07-27T18:15:24.123Z,14.45
2022-07-27T18:18:28.786Z,12.60
2022-07-27T18:21:32.259Z,17.98
2022-07-27T18:24:37.026Z,16.05
2022-07-27T18:27:41.028Z,19.38
2022-07-27T18:30:46.071Z,17.90
2022-07-27T18:33:50.959Z,14.32
2022-07-27T18:36:54.958Z,16.65
2022-07-27T18:39:59.735Z,15.38
2022-07-27T18:43:03.287Z,22.55
2022-07-27T18:46:07.211Z,24.00
2022-07-27T18:49:13.942Z,30.90
2022-07-27T18:52:17.829Z,33.08
2022-07-27T18:55:23.091Z,20.10
2022-07-27T18:58:27.796Z,23.77
2022-07-27T19:01:31.245Z,13.68
2022-07-27T19:04:35.002Z,15.60
2022-07-27T19:07:38.793Z,15.93
2022-07-27T19:10:45.814Z,13.57
2022-07-27T19:13:49.173Z,13.07
2022-07-27T19:16:52.867Z,7.97
2022-07-27T19:19:56.313Z,11.43
2022-07-27T19:23:00.883Z,14.07
2022-07-27T19:26:10.437Z,10.77
2022-07-27T19:29:17.222Z,8.60
2022-07-27T19:32:20.734Z,11.55
2022-07-27T19:35:24.037Z,10.43
2022-07-27T19:38:27.601Z,13.52
2022-07-27T19:41:32.393Z,13.48
2022-07-27T19:44:35.739Z,11.90
2022-07-27T19:47:39.093Z,10.68
2022-07-27T19:50:42.998Z,9.23
2022-07-27T19:53:50.242Z,8.50
2022-07-27T19:57:13.268Z,10.77
2022-07-27T20:00:37.960Z,9.90
2022-07-27T20:03:54.586Z,9.40
2022-07-27T20:06:58.440Z,8.35
2022-07-27T20:10:01.809Z,10.88
2022-07-27T20:13:06.937Z,14.07
2022-07-27T20:16:10.379Z,10.00
2022-07-27T20:19:13.993Z,13.48
2022-07-27T20:22:17.609Z,11.90
2022-07-27T20:25:21.080Z,9.82
2022-07-27T20:28:25.811Z,11.75
2022-07-27T20:31:29.599Z,9.48
2022-07-27T20:34:32.948Z,10.02
2022-07-27T20:37:36.568Z,9.88
2022-07-27T20:40:39.983Z,9.70
2022-07-27T20:43:44.753Z,8.27
2022-07-27T20:46:48.154Z,10.82
2022-07-27T20:49:51.554Z,10.90
2022-07-27T20:52:54.993Z,11.10
2022-07-27T20:55:58.250Z,8.90
2022-07-27T20:59:03.280Z,8.23
2022-07-27T21:02:11.318Z,8.50
2022-07-27T21:05:14.679Z,9.13
2022-07-27T21:08:17.945Z,10.35
2022-07-27T21:11:21.463Z,8.40
2022-07-27T21:14:26.207Z,11.23
2022-07-27T21:17:29.999Z,7.75
2022-07-27T21:20:33.331Z,10.13
2022-07-27T21:23:54.264Z,11.57
2022-07-27T21:27:00.903Z,11.15
2022-07-27T21:30:10.308Z,9.80
2022-07-27T21:33:13.781Z,7.95
2022-07-27T21:36:17.348Z,9.20
2022-07-27T21:39:21.718Z,9.07
2022-07-27T21:42:25.029Z,9.68
2022-07-27T21:45:29.737Z,10.25
2022-07-27T21:48:33.482Z,9.77
2022-07-27T21:51:36.997Z,9.63
2022-07-27T21:54:40.572Z,10.70
2022-07-27T21:57:43.968Z,8.20
2022-07-27T22:00:48.887Z,9.65
2022-07-27T22:03:52.446Z,11.23
2022-07-27T22:06:55.927Z,8.95
2022-07-27T22:09:59.229Z,8.95
2022-07-27T22:13:03.781Z,8.88
2022-07-27T22:16:09.286Z,9.70
2022-07-27T22:19:12.794Z,11.93
2022-07-27T22:22:16.085Z,17.02
2022-07-27T22:25:20.468Z,8.65
2022-07-27T22:28:26.032Z,9.00
2022-07-27T22:31:31.206Z,11.80
2022-07-27T22:34:35.055Z,9.18
2022-07-27T22:37:38.713Z,11.15
2022-07-27T22:40:42.192Z,8.18
2022-07-27T22:43:45.527Z,8.25
2022-07-27T22:46:50.584Z,8.48
2022-07-27T22:49:53.870Z,11.45
2022-07-27T22:52:57.810Z,12.57
2022-07-27T22:56:01.250Z,8.63
2022-07-27T22:59:04.585Z,8.93
2022-07-27T23:02:09.776Z,9.98
2022-07-27T23:05:13.303Z,8.00
2022-07-27T23:08:16.630Z,9.32
2022-07-27T23:11:19.969Z,9.52
2022-07-27T23:14:26.035Z,10.25
2022-07-27T23:17:31.502Z,8.82
2022-07-27T23:20:34.980Z,9.95
2022-07-27T23:23:39.947Z,8.73
2022-07-27T23:26:54.443Z,7.60
2022-07-27T23:29:57.852Z,8.23
2022-07-27T23:33:02.607Z,7.78
2022-07-27T23:36:06.891Z,7.35
2022-07-27T23:39:10.187Z,6.88
2022-07-27T23:42:13.792Z,8.10
2022-07-27T23:45:18.573Z,9.10
2022-07-27T23:48:25.030Z,8.23
2022-07-27T23:51:29.472Z,7.25
2022-07-27T23:54:33.053Z,8.55
2022-07-27T23:57:36.461Z,9.80
